createdAt,value
2023-02-23T00:02:20.878Z,-5.94
2023-02-23T00:04:49.094Z,-5.96
2023-02-23T00:07:20.140Z,-6.00
2023-02-23T00:09:48.440Z,-6.02
2023-02-23T00:12:17.356Z,-6.04
2023-02-23T00:14:46.319Z,-6.06
2023-02-23T00:17:17.728Z,-6.08
2023-02-23T00:19:47.899Z,-6.10
2023-02-23T00:22:15.961Z,-6.13
2023-02-23T00:24:47.096Z,-6.16
2023-02-23T00:27:18.703Z,-6.17
2023-02-23T00:29:49.754Z,-6.21
2023-02-23T00:32:20.155Z,-6.23
2023-02-23T00:34:49.990Z,-6.26
2023-02-23T00:37:18.673Z,-6.29
2023-02-23T00:39:50.232Z,-6.33
2023-02-23T00:42:18.382Z,-6.35
2023-02-23T00:44:48.840Z,-6.36
2023-02-23T00:47:17.236Z,-6.38
2023-02-23T00:49:45.709Z,-6.40
2023-02-23T00:52:14.901Z,-6.43
2023-02-23T00:54:43.482Z,-6.44
2023-02-23T00:57:11.966Z,-6.45
2023-02-23T00:59:40.345Z,-6.48
2023-02-23T01:02:08.448Z,-6.53
2023-02-23T01:04:36.575Z,-6.55
2023-02-23T01:07:06.750Z,-6.58
2023-02-23T01:09:35.398Z,-6.60
2023-02-23T01:12:07.688Z,-6.63
2023-02-23T01:14:38.164Z,-6.65
2023-02-23T01:17:07.710Z,-6.69
2023-02-23T01:19:38.263Z,-6.74
2023-02-23T01:22:06.727Z,-6.77
2023-02-23T01:24:35.464Z,-6.80
2023-02-23T01:27:06.364Z,-6.84
2023-02-23T01:29:36.372Z,-6.86
2023-02-23T01:32:05.560Z,-6.88
2023-02-23T01:34:36.300Z,-6.89
2023-02-23T01:37:04.578Z,-6.92
2023-02-23T01:39:32.805Z,-6.96
2023-02-23T01:42:23.050Z,-6.99
2023-02-23T01:44:54.299Z,-7.03
2023-02-23T01:47:23.301Z,-7.05
2023-02-23T01:49:51.675Z,-7.06
2023-02-23T01:52:19.760Z,-7.07
2023-02-23T01:54:52.120Z,-7.08
2023-02-23T01:57:25.158Z,-7.10
2023-02-23T01:59:54.929Z,-7.10
2023-02-23T02:02:32.972Z,-7.12
2023-02-23T02:05:04.690Z,-7.13
2023-02-23T02:07:35.451Z,-7.15
2023-02-23T02:10:12.412Z,-7.18
2023-02-23T02:12:53.796Z,-7.20
2023-02-23T02:15:26.089Z,-7.22
2023-02-23T02:18:03.504Z,-7.24
2023-02-23T02:21:06.350Z,-7.26
2023-02-23T02:23:50.088Z,-7.29
2023-02-23T02:26:21.135Z,-7.31
2023-02-23T02:29:09.119Z,-7.32
2023-02-23T02:31:50.666Z,-7.33
2023-02-23T02:34:42.698Z,-7.36
2023-02-23T02:37:19.207Z,-7.40
2023-02-23T02:40:16.465Z,-7.44
2023-02-23T02:43:15.356Z,-7.47
2023-02-23T02:46:29.858Z,-7.50
2023-02-23T02:49:26.799Z,-7.53
2023-02-23T02:52:06.032Z,-7.57
2023-02-23T02:54:44.796Z,-7.59
2023-02-23T02:57:12.869Z,-7.60
2023-02-23T03:00:04.600Z,-7.62
2023-02-23T03:02:59.300Z,-7.67
2023-02-23T03:06:09.488Z,-7.72
2023-02-23T03:09:14.926Z,-7.74
2023-02-23T03:12:11.141Z,-7.78
2023-02-23T03:15:40.790Z,-7.81
2023-02-23T03:18:46.624Z,-7.83
2023-02-23T03:21:43.066Z,-7.89
2023-02-23T03:24:52.404Z,-7.93
2023-02-23T03:27:46.071Z,-7.94
2023-02-23T03:30:43.445Z,-7.96
2023-02-23T03:33:41.714Z,-7.99
2023-02-23T03:36:34.978Z,-8.02
2023-02-23T03:39:56.815Z,-8.07
2023-02-23T03:42:47.010Z,-8.12
2023-02-23T03:45:35.284Z,-8.15
2023-02-23T03:48:23.300Z,-8.19
2023-02-23T03:51:13.075Z,-8.23
2023-02-23T03:54:10.952Z,-8.29
2023-02-23T03:57:00.979Z,-8.32
2023-02-23T03:59:52.871Z,-8.35
2023-02-23T04:02:40.199Z,-8.37
2023-02-23T04:05:29.880Z,-8.38
2023-02-23T04:08:17.202Z,-8.39
2023-02-23T04:11:17.054Z,-8.39
2023-02-23T04:13:46.895Z,-8.43
2023-02-23T04:16:19.474Z,-8.45
2023-02-23T04:18:49.014Z,-8.46
2023-02-23T04:21:17.412Z,-8.47
2023-02-23T04:23:46.696Z,-8.49
2023-02-23T04:26:15.083Z,-8.49
2023-02-23T04:28:43.458Z,-8.48
2023-02-23T04:31:11.653Z,-8.49
2023-02-23T04:33:41.036Z,-8.49
2023-02-23T04:36:09.321Z,-8.52
2023-02-23T04:38:39.144Z,-8.53
2023-02-23T04:41:07.545Z,-8.56
2023-02-23T04:43:41.853Z,-8.57
2023-02-23T04:46:09.975Z,-8.56
2023-02-23T04:48:38.697Z,-8.57
2023-02-23T04:51:07.095Z,-8.57
2023-02-23T04:53:35.295Z,-8.57
2023-02-23T04:56:04.258Z,-8.56
2023-02-23T04:58:32.734Z,-8.55
2023-02-23T05:01:07.833Z,-8.56
2023-02-23T05:03:36.664Z,-8.58
2023-02-23T05:06:05.045Z,-8.59
2023-02-23T05:08:33.218Z,-8.59
2023-02-23T05:11:04.367Z,-8.59
2023-02-23T05:13:33.267Z,-8.58
2023-02-23T05:16:01.513Z,-8.55
2023-02-23T05:18:30.128Z,-8.55
2023-02-23T05:21:07.413Z,-8.56
2023-02-23T05:23:36.141Z,-8.56
2023-02-23T05:26:06.540Z,-8.53
2023-02-23T05:28:36.610Z,-8.51
2023-02-23T05:31:05.468Z,-8.50
2023-02-23T05:33:46.005Z,-8.48
2023-02-23T05:36:17.683Z,-8.44
2023-02-23T05:38:47.374Z,-8.39
2023-02-23T05:41:35.521Z,-8.35
2023-02-23T05:44:03.895Z,-8.33
2023-02-23T05:46:32.435Z,-8.31
2023-02-23T05:49:02.811Z,-8.29
2023-02-23T05:51:32.318Z,-8.26
2023-02-23T05:54:00.897Z,-8.22
2023-02-23T05:56:29.591Z,-8.17
2023-02-23T05:58:58.069Z,-8.12
2023-02-23T06:01:26.863Z,-8.06
2023-02-23T06:04:06.369Z,-8.01
2023-02-23T06:06:36.219Z,-7.98
2023-02-23T06:09:11.052Z,-7.94
2023-02-23T06:11:41.041Z,-7.89
2023-02-23T06:14:09.145Z,-7.84
2023-02-23T06:16:38.352Z,-7.78
2023-02-23T06:19:09.491Z,-7.68
2023-02-23T06:21:37.678Z,-7.60
2023-02-23T06:24:06.817Z,-7.52
2023-02-23T06:26:35.675Z,-7.44
2023-02-23T06:29:04.011Z,-7.37
2023-02-23T06:31:33.097Z,-7.31
2023-02-23T06:34:03.526Z,-7.25
2023-02-23T06:36:32.576Z,-7.19
2023-02-23T06:39:07.079Z,-7.16
2023-02-23T06:41:36.362Z,-7.12
2023-02-23T06:44:05.375Z,-7.05
2023-02-23T06:46:34.023Z,-6.97
2023-02-23T06:49:02.548Z,-6.87
2023-02-23T06:51:31.232Z,-6.77
2023-02-23T06:53:59.407Z,-6.65
2023-02-23T06:56:27.891Z,-6.55
2023-02-23T06:58:57.501Z,-6.46
2023-02-23T07:01:25.570Z,-6.40
2023-02-23T07:03:54.037Z,-6.33
2023-02-23T07:06:22.127Z,-6.23
2023-02-23T07:08:50.608Z,-6.15
2023-02-23T07:11:19.872Z,-6.10
2023-02-23T07:13:48.267Z,-6.06
2023-02-23T07:16:16.673Z,-6.05
2023-02-23T07:18:44.953Z,-6.01
2023-02-23T07:21:13.330Z,-5.95
2023-02-23T07:23:41.506Z,-5.91
2023-02-23T07:26:10.605Z,-5.87
2023-02-23T07:28:39.380Z,-5.85
2023-02-23T07:31:07.620Z,-5.82
2023-02-23T07:33:35.972Z,-5.74
2023-02-23T07:36:08.967Z,-5.64
2023-02-23T07:38:37.528Z,-5.56
2023-02-23T07:41:05.969Z,-5.51
2023-02-23T07:43:34.868Z,-5.46
2023-02-23T07:46:03.320Z,-5.42
2023-02-23T07:48:32.384Z,-5.34
2023-02-23T07:51:00.969Z,-5.23
2023-02-23T07:53:29.621Z,-5.13
2023-02-23T07:55:59.070Z,-5.07
2023-02-23T07:58:27.951Z,-5.03
2023-02-23T08:00:56.960Z,-5.04
2023-02-23T08:03:24.978Z,-5.03
2023-02-23T08:05:53.827Z,-5.04
2023-02-23T08:08:22.500Z,-4.98
2023-02-23T08:10:51.288Z,-4.84
2023-02-23T08:13:20.999Z,-4.70
2023-02-23T08:15:49.383Z,-4.57
2023-02-23T08:18:22.074Z,-4.50
2023-02-23T08:20:50.853Z,-4.47
2023-02-23T08:23:19.046Z,-4.39
2023-02-23T08:25:47.204Z,-4.31
2023-02-23T08:28:15.482Z,-4.26
2023-02-23T08:30:44.461Z,-4.20
2023-02-23T08:33:12.873Z,-4.13
2023-02-23T08:35:41.641Z,-4.06
2023-02-23T08:38:09.834Z,-3.95
2023-02-23T08:40:38.046Z,-3.77
2023-02-23T08:43:07.811Z,-3.67
2023-02-23T08:45:38.783Z,-3.58
2023-02-23T08:48:07.877Z,-3.51
2023-02-23T08:50:36.127Z,-3.46
2023-02-23T08:53:05.554Z,-3.34
2023-02-23T08:55:38.425Z,-2.95
2023-02-23T08:58:10.722Z,-2.22
2023-02-23T09:00:41.728Z,-1.44
2023-02-23T09:03:11.798Z,-0.76
2023-02-23T09:05:48.475Z,-0.16
2023-02-23T09:08:16.740Z,0.38
2023-02-23T09:10:45.196Z,1.06
2023-02-23T09:13:17.694Z,1.31
2023-02-23T09:15:51.919Z,1.83
2023-02-23T09:18:20.035Z,2.62
2023-02-23T09:20:50.224Z,3.35
2023-02-23T09:23:18.411Z,3.58
2023-02-23T09:25:46.554Z,3.83
2023-02-23T09:28:16.747Z,4.11
2023-02-23T09:30:45.284Z,3.80
2023-02-23T09:33:13.662Z,3.82
2023-02-23T09:35:42.329Z,4.24
2023-02-23T09:38:10.799Z,4.94
2023-02-23T09:40:47.521Z,5.44
2023-02-23T09:43:33.866Z,5.59
2023-02-23T09:46:12.341Z,5.31
2023-02-23T09:48:40.840Z,5.70
2023-02-23T09:51:09.186Z,6.08
2023-02-23T09:53:45.058Z,6.34
2023-02-23T09:56:22.004Z,6.38
2023-02-23T09:58:50.476Z,6.21
2023-02-23T10:01:42.636Z,6.42
2023-02-23T10:04:13.751Z,6.10
2023-02-23T10:06:43.535Z,6.08
2023-02-23T10:09:17.784Z,5.92
2023-02-23T10:11:57.694Z,5.08
2023-02-23T10:15:11.371Z,4.50
2023-02-23T10:18:04.182Z,4.34
2023-02-23T10:20:44.123Z,5.24
2023-02-23T10:23:17.281Z,6.13
2023-02-23T10:25:48.094Z,6.41
2023-02-23T10:28:21.687Z,6.70
2023-02-23T10:30:50.496Z,6.36
2023-02-23T10:33:35.202Z,6.01
2023-02-23T10:36:35.519Z,6.14
2023-02-23T10:39:07.855Z,6.59
2023-02-23T10:41:36.352Z,7.00
2023-02-23T10:44:16.286Z,7.10
2023-02-23T10:46:49.942Z,6.95
2023-02-23T10:49:22.630Z,6.28
2023-02-23T10:51:58.332Z,6.29
2023-02-23T10:54:36.357Z,6.59
2023-02-23T10:57:05.872Z,7.00
2023-02-23T10:59:35.906Z,7.51
2023-02-23T11:02:24.399Z,8.13
2023-02-23T11:04:57.030Z,8.72
2023-02-23T11:07:35.439Z,9.04
2023-02-23T11:10:26.514Z,8.76
2023-02-23T11:12:57.126Z,8.44
2023-02-23T11:15:48.602Z,8.53
2023-02-23T11:18:23.592Z,8.26
2023-02-23T11:20:52.508Z,8.41
2023-02-23T11:23:31.983Z,8.61
2023-02-23T11:26:02.285Z,7.98
2023-02-23T11:28:33.996Z,6.40
2023-02-23T11:31:19.202Z,5.39
2023-02-23T11:33:48.518Z,5.09
2023-02-23T11:36:24.655Z,5.28
2023-02-23T11:39:22.908Z,6.05
2023-02-23T11:42:25.643Z,6.94
2023-02-23T11:45:05.568Z,7.51
2023-02-23T11:47:35.280Z,8.01
2023-02-23T11:50:03.860Z,8.09
2023-02-23T11:52:35.672Z,7.56
2023-02-23T11:55:07.216Z,7.00
2023-02-23T11:57:36.028Z,6.72
2023-02-23T12:00:13.145Z,6.62
2023-02-23T12:03:00.030Z,6.57
2023-02-23T12:05:30.253Z,6.28
2023-02-23T12:08:08.409Z,6.07
2023-02-23T12:10:39.307Z,5.95
2023-02-23T12:13:07.771Z,5.92
2023-02-23T12:15:56.539Z,6.39
2023-02-23T12:18:45.970Z,6.70
2023-02-23T12:21:36.690Z,6.68
2023-02-23T12:24:08.143Z,7.07
2023-02-23T12:27:06.438Z,7.49
2023-02-23T12:30:07.631Z,6.97
2023-02-23T12:32:53.977Z,6.54
2023-02-23T12:35:29.560Z,6.36
2023-02-23T12:38:46.109Z,5.88
2023-02-23T12:41:16.580Z,5.96
2023-02-23T12:44:03.572Z,6.26
2023-02-23T12:46:35.691Z,6.57
2023-02-23T12:49:14.108Z,6.93
2023-02-23T12:51:47.693Z,7.08
2023-02-23T12:54:16.032Z,6.84
2023-02-23T12:56:53.246Z,6.30
2023-02-23T12:59:39.915Z,6.05
2023-02-23T13:02:47.661Z,5.66
2023-02-23T13:05:31.907Z,6.07
2023-02-23T13:08:22.640Z,6.58
2023-02-23T13:11:07.999Z,6.79
2023-02-23T13:13:50.877Z,6.74
2023-02-23T13:16:24.246Z,6.89
2023-02-23T13:19:32.527Z,6.87
2023-02-23T13:22:32.424Z,6.57
2023-02-23T13:25:04.624Z,6.75
2023-02-23T13:27:38.713Z,7.03
2023-02-23T13:30:10.866Z,7.38
2023-02-23T13:32:39.434Z,7.47
2023-02-23T13:35:13.756Z,7.29
2023-02-23T13:37:56.050Z,7.15
2023-02-23T13:40:31.932Z,7.10
2023-02-23T13:43:07.011Z,7.10
2023-02-23T13:45:59.792Z,6.86
2023-02-23T13:48:35.162Z,7.06
2023-02-23T13:51:31.784Z,7.31
2023-02-23T13:54:05.995Z,7.51
2023-02-23T13:56:42.556Z,7.49
2023-02-23T13:59:19.926Z,7.30
2023-02-23T14:01:50.873Z,7.13
2023-02-23T14:04:27.889Z,7.06
2023-02-23T14:07:05.866Z,7.03
2023-02-23T14:09:36.813Z,6.93
2023-02-23T14:12:19.330Z,6.90
2023-02-23T14:14:47.438Z,6.57
2023-02-23T14:17:20.001Z,6.24
2023-02-23T14:20:17.826Z,6.15
2023-02-23T14:23:19.243Z,5.94
2023-02-23T14:26:09.607Z,5.68
2023-02-23T14:28:40.947Z,5.63
2023-02-23T14:31:16.164Z,5.60
2023-02-23T14:33:48.728Z,5.70
2023-02-23T14:36:24.331Z,5.78
2023-02-23T14:39:00.707Z,5.77
2023-02-23T14:41:55.634Z,5.72
2023-02-23T14:44:31.787Z,5.57
2023-02-23T14:47:06.811Z,5.38
2023-02-23T14:49:46.047Z,5.19
2023-02-23T14:52:44.517Z,5.05
2023-02-23T14:55:12.534Z,4.63
2023-02-23T14:57:42.347Z,3.99
2023-02-23T15:00:28.096Z,3.19
2023-02-23T15:03:09.423Z,2.41
2023-02-23T15:05:59.113Z,1.88
2023-02-23T15:08:29.542Z,1.39
2023-02-23T15:11:05.497Z,1.00
2023-02-23T15:16:09.461Z,0.29
2023-02-23T15:18:39.116Z,-0.03
2023-02-23T15:21:13.964Z,-0.36
2023-02-23T15:23:48.136Z,-0.64
2023-02-23T15:26:32.032Z,-0.88
2023-02-23T15:29:20.918Z,-1.08
2023-02-23T15:31:52.930Z,-1.27
2023-02-23T15:34:25.045Z,-1.42
2023-02-23T15:37:04.923Z,-1.57
2023-02-23T15:39:53.371Z,-1.71
2023-02-23T15:42:25.434Z,-1.86
2023-02-23T15:44:55.721Z,-1.99
2023-02-23T15:47:28.657Z,-2.10
2023-02-23T15:50:36.992Z,-2.21
2023-02-23T15:53:13.505Z,-2.34
2023-02-23T15:55:42.797Z,-2.44
2023-02-23T15:58:31.724Z,-2.53
2023-02-23T16:01:06.282Z,-2.62
2023-02-23T16:03:37.252Z,-2.68
2023-02-23T16:06:07.926Z,-2.73
2023-02-23T16:08:57.867Z,-2.79
2023-02-23T16:11:26.122Z,-2.84
2023-02-23T16:13:54.245Z,-2.87
2023-02-23T16:16:25.460Z,-2.91
2023-02-23T16:19:01.622Z,-2.95
2023-02-23T16:21:31.581Z,-2.99
2023-02-23T16:24:01.997Z,-3.01
2023-02-23T16:26:46.451Z,-3.02
2023-02-23T16:29:18.758Z,-3.04
2023-02-23T16:31:49.162Z,-3.05
2023-02-23T16:34:35.817Z,-3.06
2023-02-23T16:37:15.831Z,-3.06
2023-02-23T16:39:43.893Z,-3.08
2023-02-23T16:42:23.808Z,-3.11
2023-02-23T16:44:54.131Z,-3.13
2023-02-23T16:47:22.614Z,-3.15
2023-02-23T16:49:51.546Z,-3.17
2023-02-23T16:52:22.468Z,-3.18
2023-02-23T16:54:55.319Z,-3.19
2023-02-23T16:57:25.808Z,-3.22
2023-02-23T16:59:53.953Z,-3.23
2023-02-23T17:02:24.678Z,-3.24
2023-02-23T17:04:59.147Z,-3.24
2023-02-23T17:07:27.673Z,-3.25
2023-02-23T17:09:55.845Z,-3.27
2023-02-23T17:12:26.215Z,-3.28
2023-02-23T17:14:56.198Z,-3.30
2023-02-23T17:17:24.514Z,-3.30
2023-02-23T17:19:52.640Z,-3.33
2023-02-23T17:22:22.887Z,-3.34
2023-02-23T17:24:51.135Z,-3.34
2023-02-23T17:27:19.293Z,-3.37
2023-02-23T17:29:47.336Z,-3.40
2023-02-23T17:32:16.537Z,-3.42
2023-02-23T17:34:45.176Z,-3.45
2023-02-23T17:37:14.569Z,-3.48
2023-02-23T17:39:42.866Z,-3.52
2023-02-23T17:42:11.243Z,-3.56
2023-02-23T17:44:39.655Z,-3.58
2023-02-23T17:47:08.253Z,-3.61
2023-02-23T17:49:36.483Z,-3.65
2023-02-23T17:52:04.587Z,-3.67
2023-02-23T17:54:32.939Z,-3.69
2023-02-23T17:57:01.527Z,-3.70
2023-02-23T17:59:29.870Z,-3.70
2023-02-23T18:01:58.351Z,-3.71
2023-02-23T18:04:26.468Z,-3.72
2023-02-23T18:06:56.885Z,-3.75
2023-02-23T18:09:24.982Z,-3.75
2023-02-23T18:11:53.324Z,-3.73
2023-02-23T18:14:21.820Z,-3.73
2023-02-23T18:16:50.291Z,-3.76
2023-02-23T18:19:19.375Z,-3.76
2023-02-23T18:21:47.580Z,-3.77
2023-02-23T18:24:17.123Z,-3.78
2023-02-23T18:26:46.551Z,-3.81
2023-02-23T18:29:15.139Z,-3.82
2023-02-23T18:31:48.281Z,-3.83
2023-02-23T18:34:16.776Z,-3.84
2023-02-23T18:36:45.037Z,-3.85
2023-02-23T18:39:16.528Z,-3.86
2023-02-23T18:41:46.805Z,-3.89
2023-02-23T18:44:16.691Z,-3.92
2023-02-23T18:46:47.595Z,-3.95
2023-02-23T18:49:17.465Z,-3.98
2023-02-23T18:51:48.903Z,-4.00
2023-02-23T18:54:18.788Z,-4.02
2023-02-23T18:56:47.737Z,-4.05
2023-02-23T18:59:16.268Z,-4.07
2023-02-23T19:01:46.784Z,-4.09
2023-02-23T19:04:15.279Z,-4.10
2023-02-23T19:06:44.424Z,-4.11
2023-02-23T19:09:14.554Z,-4.13
2023-02-23T19:11:44.876Z,-4.15
2023-02-23T19:14:16.959Z,-4.17
2023-02-23T19:16:45.577Z,-4.18
2023-02-23T19:19:16.091Z,-4.20
2023-02-23T19:21:45.532Z,-4.22
2023-02-23T19:24:14.183Z,-4.22
2023-02-23T19:26:42.448Z,-4.24
2023-02-23T19:29:10.656Z,-4.24
2023-02-23T19:31:39.168Z,-4.26
2023-02-23T19:34:10.125Z,-4.27
2023-02-23T19:36:40.240Z,-4.28
2023-02-23T19:39:15.873Z,-4.30
2023-02-23T19:41:45.874Z,-4.32
2023-02-23T19:44:20.796Z,-4.33
2023-02-23T19:46:50.155Z,-4.35
2023-02-23T19:49:18.273Z,-4.36
2023-02-23T19:51:50.891Z,-4.38
2023-02-23T19:54:20.095Z,-4.40
2023-02-23T19:56:50.032Z,-4.41
2023-02-23T19:59:18.479Z,-4.42
2023-02-23T20:01:51.561Z,-4.43
2023-02-23T20:04:19.923Z,-4.44
2023-02-23T20:06:50.437Z,-4.44
2023-02-23T20:09:20.600Z,-4.45
2023-02-23T20:11:49.813Z,-4.47
2023-02-23T20:14:18.665Z,-4.48
2023-02-23T20:16:48.367Z,-4.49
2023-02-23T20:19:16.465Z,-4.51
2023-02-23T20:21:45.097Z,-4.52
2023-02-23T20:24:13.291Z,-4.53
2023-02-23T20:26:42.798Z,-4.54
2023-02-23T20:29:14.201Z,-4.54
2023-02-23T20:31:50.820Z,-4.55
2023-02-23T20:34:22.796Z,-4.54
2023-02-23T20:36:52.853Z,-4.55
2023-02-23T20:39:24.548Z,-4.56
2023-02-23T20:41:53.800Z,-4.58
2023-02-23T20:44:23.098Z,-4.58
2023-02-23T20:46:52.906Z,-4.59
2023-02-23T20:49:22.865Z,-4.60
2023-02-23T20:51:50.902Z,-4.62
2023-02-23T20:54:19.556Z,-4.63
2023-02-23T20:57:07.784Z,-4.64
2023-02-23T20:59:39.532Z,-4.65
2023-02-23T21:02:08.478Z,-4.67
2023-02-23T21:04:42.565Z,-4.67
2023-02-23T21:07:10.771Z,-4.68
2023-02-23T21:09:41.919Z,-4.68
2023-02-23T21:12:10.428Z,-4.69
2023-02-23T21:14:38.888Z,-4.69
2023-02-23T21:17:06.918Z,-4.70
2023-02-23T21:19:36.440Z,-4.72
2023-02-23T21:22:04.976Z,-4.74
2023-02-23T21:24:34.803Z,-4.76
2023-02-23T21:27:05.420Z,-4.77
2023-02-23T21:29:34.278Z,-4.79
2023-02-23T21:32:02.477Z,-4.81
2023-02-23T21:34:30.807Z,-4.82
2023-02-23T21:37:09.923Z,-4.84
2023-02-23T21:39:42.132Z,-4.84
2023-02-23T21:42:10.630Z,-4.83
2023-02-23T21:44:39.470Z,-4.83
2023-02-23T21:47:07.767Z,-4.82
2023-02-23T21:49:35.947Z,-4.80
2023-02-23T21:52:07.418Z,-4.79
2023-02-23T21:54:36.771Z,-4.80
2023-02-23T21:57:04.860Z,-4.79
2023-02-23T21:59:34.598Z,-4.79
2023-02-23T22:02:02.871Z,-4.79
2023-02-23T22:04:31.920Z,-4.80
2023-02-23T22:07:00.192Z,-4.79
2023-02-23T22:09:28.924Z,-4.80
2023-02-23T22:11:57.278Z,-4.82
2023-02-23T22:14:27.279Z,-4.80
2023-02-23T22:16:55.960Z,-4.79
2023-02-23T22:19:24.037Z,-4.78
2023-02-23T22:21:52.227Z,-4.76
2023-02-23T22:24:20.521Z,-4.75
2023-02-23T22:26:54.924Z,-4.75
2023-02-23T22:29:24.411Z,-4.75
2023-02-23T22:31:53.237Z,-4.74
2023-02-23T22:34:21.699Z,-4.74
2023-02-23T22:36:50.303Z,-4.73
2023-02-23T22:39:19.205Z,-4.71
2023-02-23T22:41:47.490Z,-4.70
2023-02-23T22:44:19.415Z,-4.70
2023-02-23T22:46:50.340Z,-4.68
2023-02-23T22:49:20.290Z,-4.67
2023-02-23T22:51:48.776Z,-4.66
2023-02-23T22:54:17.658Z,-4.65
2023-02-23T22:56:47.078Z,-4.62
2023-02-23T22:59:17.760Z,-4.60
2023-02-23T23:01:49.109Z,-4.60
2023-02-23T23:04:19.613Z,-4.59
2023-02-23T23:06:47.818Z,-4.58
2023-02-23T23:09:21.244Z,-4.58
2023-02-23T23:11:51.050Z,-4.58
2023-02-23T23:14:25.215Z,-4.56
2023-02-23T23:16:55.317Z,-4.55
2023-02-23T23:19:24.461Z,-4.56
2023-02-23T23:21:57.391Z,-4.55
2023-02-23T23:24:27.563Z,-4.53
2023-02-23T23:26:56.675Z,-4.52
2023-02-23T23:29:26.002Z,-4.52
2023-02-23T23:31:57.387Z,-4.52
2023-02-23T23:34:25.794Z,-4.52
2023-02-23T23:37:01.068Z,-4.50
2023-02-23T23:39:31.272Z,-4.47
2023-02-23T23:42:03.930Z,-4.46
2023-02-23T23:44:33.945Z,-4.44
2023-02-23T23:47:05.484Z,-4.42
2023-02-23T23:49:38.696Z,-4.40
2023-02-23T23:52:08.414Z,-4.38
2023-02-23T23:54:42.947Z,-4.36
2023-02-23T23:57:13.910Z,-4.35
2023-02-23T23:59:46.307Z,-4.31
